Time;durP1;ratioP1;P1;durP2;ratioP2;P2;SDS_P1;SDS_P2;PMS_P1;PMS_P2;Temp;Humidity;BMP_temperature;BMP_pressure;BME280_temperature;BME280_humidity;BME280_pressure;Samples;Min_cycle;Max_cycle;Signal;HPM_P1;HPM_P2
2023/12/23 00:00:08;;;;;;;4.00;2.30;;;;;;;19.68;33.21;98977.10;102327;1293;62207;-76
2023/12/23 00:02:34;;;;;;;4.60;2.50;;;;;;;19.69;32.97;98984.96;102396;1296;62168;-77
2023/12/23 00:04:59;;;;;;;4.80;2.80;;;;;;;19.68;32.99;98996.58;102386;1293;60488;-77
2023/12/23 00:07:25;;;;;;;4.60;2.50;;;;;;;19.68;32.89;98997.84;102516;1293;62085;-77
2023/12/23 00:09:51;;;;;;;4.50;2.50;;;;;;;19.68;32.91;99000.15;102386;1294;62170;-76
2023/12/23 00:12:16;;;;;;;4.80;2.70;;;;;;;19.68;33.05;98996.80;102507;1293;72517;-77
2023/12/23 00:14:42;;;;;;;4.00;2.10;;;;;;;19.68;32.94;98988.95;102377;1293;62066;-77
2023/12/23 00:17:08;;;;;;;4.40;2.40;;;;;;;19.68;32.96;98980.00;102548;1293;60124;-77
2023/12/23 00:19:33;;;;;;;4.70;2.40;;;;;;;19.68;32.93;98986.60;102489;1293;62417;-77
2023/12/23 00:21:59;;;;;;;3.80;2.30;;;;;;;19.68;32.94;98991.98;102257;1296;62216;-77
2023/12/23 00:24:26;;;;;;;3.80;2.30;;;;;;;19.68;32.93;98994.30;102500;1293;62171;-77
2023/12/23 00:26:53;;;;;;;4.50;2.50;;;;;;;19.68;32.82;98989.84;102451;1293;75794;-77
2023/12/23 00:29:18;;;;;;;3.50;2.20;;;;;;;19.67;32.98;98985.95;102322;1293;62177;-77
2023/12/23 00:31:44;;;;;;;3.60;2.10;;;;;;;19.68;32.82;98990.94;102413;1293;62120;-77
2023/12/23 00:34:10;;;;;;;4.60;2.30;;;;;;;19.67;33.04;98996.66;102541;1293;62238;-77
2023/12/23 00:36:36;;;;;;;4.40;2.30;;;;;;;19.67;32.88;98999.73;102489;1293;62266;-77
2023/12/23 00:39:03;;;;;;;4.40;2.60;;;;;;;19.67;32.99;98999.00;102333;1293;62137;-77
2023/12/23 00:41:29;;;;;;;3.70;2.20;;;;;;;19.67;32.85;99001.31;102324;1293;62292;-77
2023/12/23 00:43:55;;;;;;;3.50;2.20;;;;;;;19.67;32.92;99004.18;102321;1293;62185;-77
2023/12/23 00:46:21;;;;;;;4.10;2.30;;;;;;;19.67;32.90;99007.93;102298;1293;60192;-77
2023/12/23 00:48:46;;;;;;;4.20;2.20;;;;;;;19.67;32.92;98999.37;102337;1293;62366;-77
2023/12/23 00:51:12;;;;;;;3.50;2.30;;;;;;;19.66;32.88;99001.40;102625;1293;60702;-77
2023/12/23 00:53:38;;;;;;;3.70;2.20;;;;;;;19.67;32.77;98998.86;102447;1293;62162;-77
2023/12/23 00:56:05;;;;;;;4.50;2.40;;;;;;;19.67;32.88;99001.03;102279;1293;62203;-77
2023/12/23 00:58:30;;;;;;;4.30;2.40;;;;;;;19.67;32.86;99011.71;102279;1293;62197;-77
2023/12/23 01:00:56;;;;;;;3.80;2.20;;;;;;;19.67;32.85;99017.80;102252;1293;60863;-77
2023/12/23 01:03:22;;;;;;;4.40;2.30;;;;;;;19.66;32.88;99021.41;102391;1293;60464;-77
2023/12/23 01:05:47;;;;;;;3.80;2.20;;;;;;;19.66;32.80;99018.73;102316;1295;62179;-77
2023/12/23 01:08:13;;;;;;;4.40;2.40;;;;;;;19.66;32.82;99012.66;102551;1293;62164;-77
2023/12/23 01:10:39;;;;;;;3.90;2.20;;;;;;;19.66;32.77;99000.35;102275;1293;62221;-77
2023/12/23 01:13:04;;;;;;;3.60;2.10;;;;;;;19.66;32.89;98994.10;102475;1293;62164;-77
2023/12/23 01:15:30;;;;;;;3.80;2.20;;;;;;;19.66;32.89;98989.66;102381;1293;62235;-77
2023/12/23 01:17:56;;;;;;;4.10;2.50;;;;;;;19.66;32.76;98987.19;102518;1293;60056;-77
2023/12/23 01:20:21;;;;;;;3.70;2.10;;;;;;;19.65;32.89;98975.98;102390;1293;62220;-76
2023/12/23 01:22:47;;;;;;;3.90;2.40;;;;;;;19.65;32.76;98972.41;102277;1293;75262;-77
2023/12/23 01:25:12;;;;;;;2.90;1.90;;;;;;;19.66;32.80;98972.94;102526;1294;62282;-77
2023/12/23 01:27:38;;;;;;;3.90;2.20;;;;;;;19.65;32.79;98982.08;102444;1293;62279;-77
2023/12/23 01:30:05;;;;;;;3.70;2.10;;;;;;;19.65;32.92;98988.48;102551;1293;62241;-77
2023/12/23 01:32:31;;;;;;;3.70;2.20;;;;;;;19.65;32.84;98984.04;102351;1293;60294;-77
2023/12/23 01:34:56;;;;;;;3.60;2.20;;;;;;;19.65;32.73;98973.86;102477;1293;62213;-76
2023/12/23 01:37:22;;;;;;;3.70;2.20;;;;;;;19.65;32.78;98967.10;102317;1294;62149;-77
2023/12/23 01:39:48;;;;;;;3.50;2.20;;;;;;;19.65;32.75;98974.23;102326;1294;62289;-77
2023/12/23 01:42:13;;;;;;;3.60;2.10;;;;;;;19.65;32.79;98982.59;102471;1293;60071;-77
2023/12/23 01:44:39;;;;;;;3.90;2.20;;;;;;;19.65;32.85;98994.58;102439;1294;62200;-77
2023/12/23 01:47:05;;;;;;;3.70;2.10;;;;;;;19.64;32.80;98987.67;102431;1293;62174;-77
2023/12/23 01:49:30;;;;;;;4.00;2.40;;;;;;;19.65;32.69;98981.92;102368;1293;61995;-77
2023/12/23 01:51:56;;;;;;;4.00;2.10;;;;;;;19.64;32.81;98976.06;102296;1293;62257;-77
2023/12/23 01:54:22;;;;;;;3.50;2.10;;;;;;;19.65;32.82;98975.16;102334;1296;60181;-77
2023/12/23 01:56:47;;;;;;;2.60;1.80;;;;;;;19.64;32.75;98975.39;102404;1294;63087;-77
2023/12/23 01:59:13;;;;;;;3.90;2.00;;;;;;;19.64;32.72;98979.31;102308;1293;62206;-77
2023/12/23 02:01:39;;;;;;;3.60;2.20;;;;;;;19.64;32.72;98981.95;102385;1293;62181;-77
2023/12/23 02:04:05;;;;;;;4.50;2.40;;;;;;;19.64;32.70;98983.95;102366;1293;62361;-77
2023/12/23 02:06:30;;;;;;;3.60;1.90;;;;;;;19.64;32.78;98982.38;102498;1293;62130;-77
2023/12/23 02:08:56;;;;;;;4.50;2.30;;;;;;;19.64;32.60;98994.50;102307;1294;75013;-77
2023/12/23 02:11:28;;;;;;;3.40;2.10;;;;;;;19.64;32.82;98996.99;102322;1293;59914;-77
2023/12/23 02:14:01;;;;;;;3.30;1.90;;;;;;;19.64;32.66;98998.81;102437;1293;60742;-76
2023/12/23 02:16:26;;;;;;;2.60;1.80;;;;;;;19.63;32.72;98987.39;102443;1299;72442;-77
2023/12/23 02:18:52;;;;;;;2.80;1.80;;;;;;;19.63;32.78;98983.88;102367;1295;62215;-77
2023/12/23 02:21:19;;;;;;;4.30;2.10;;;;;;;19.63;32.68;98984.41;102631;1293;62304;-77
2023/12/23 02:23:44;;;;;;;3.40;2.10;;;;;;;19.63;32.71;98978.52;102316;1293;62273;-77
2023/12/23 02:26:10;;;;;;;3.60;2.00;;;;;;;19.63;32.72;98972.63;102355;1293;62149;-77
2023/12/23 02:28:36;;;;;;;3.10;1.80;;;;;;;19.63;32.69;98963.88;102352;1295;62289;-77
2023/12/23 02:31:01;;;;;;;4.60;1.90;;;;;;;19.63;32.67;98945.86;102381;1293;62273;-77
2023/12/23 02:33:27;;;;;;;3.40;2.00;;;;;;;19.62;32.70;98935.75;102279;1293;62220;-77
2023/12/23 02:35:53;;;;;;;3.70;2.20;;;;;;;19.62;32.65;98936.65;102388;1296;60110;-77
2023/12/23 02:38:22;;;;;;;3.20;2.00;;;;;;;19.63;32.79;98931.27;102382;1293;62164;-77
2023/12/23 02:40:48;;;;;;;2.90;1.80;;;;;;;19.62;32.65;98929.53;102571;1293;75146;-77
2023/12/23 02:43:14;;;;;;;4.00;1.90;;;;;;;19.62;32.70;98930.27;102328;1298;62264;-76
2023/12/23 02:45:40;;;;;;;3.20;2.00;;;;;;;19.62;32.65;98941.14;102369;1293;62091;-77
2023/12/23 02:48:06;;;;;;;4.10;2.20;;;;;;;19.62;32.70;98947.39;102517;1293;62302;-77
2023/12/23 02:50:31;;;;;;;3.20;1.90;;;;;;;19.62;32.62;98947.05;102589;1293;62204;-77
2023/12/23 02:52:59;;;;;;;3.40;2.10;;;;;;;19.62;32.74;98946.89;102363;1293;62206;-76
2023/12/23 02:55:25;;;;;;;2.50;1.80;;;;;;;19.61;32.69;98953.84;102526;1293;62317;-77
2023/12/23 02:57:51;;;;;;;4.40;2.10;;;;;;;19.62;32.79;98962.95;102484;1293;62177;-77
2023/12/23 03:00:17;;;;;;;2.90;1.90;;;;;;;19.62;32.70;98951.34;102536;1293;60386;-77
2023/12/23 03:02:42;;;;;;;3.10;1.90;;;;;;;19.61;32.74;98951.90;102338;1293;62244;-77
2023/12/23 03:05:08;;;;;;;3.50;1.90;;;;;;;19.61;32.75;98946.58;102379;1293;62152;-77
2023/12/23 03:07:34;;;;;;;3.20;1.80;;;;;;;19.61;32.74;98938.52;102401;1294;62292;-77
2023/12/23 03:09:59;;;;;;;4.00;2.10;;;;;;;19.61;32.81;98936.38;102367;1293;61969;-76
2023/12/23 03:12:25;;;;;;;4.10;2.10;;;;;;;19.61;32.62;98925.33;102411;1293;62056;-76
2023/12/23 03:14:50;;;;;;;4.20;2.10;;;;;;;19.61;32.60;98931.42;102390;1293;60034;-77
2023/12/23 03:17:16;;;;;;;2.80;1.80;;;;;;;19.61;32.69;98931.08;102427;1294;62219;-77
2023/12/23 03:19:42;;;;;;;2.90;1.80;;;;;;;19.60;32.75;98926.31;102249;1293;62280;-77
2023/12/23 03:22:07;;;;;;;3.80;1.80;;;;;;;19.60;32.78;98932.17;102532;1293;62167;-77
2023/12/23 03:24:33;;;;;;;4.70;1.90;;;;;;;19.60;32.61;98944.69;102329;1293;62187;-77
2023/12/23 03:26:59;;;;;;;3.00;1.90;;;;;;;19.60;32.73;98961.85;102415;1294;62219;-77
2023/12/23 03:29:24;;;;;;;3.30;1.90;;;;;;;19.60;32.66;98960.45;102320;1293;60280;-77
2023/12/23 03:31:50;;;;;;;3.40;1.90;;;;;;;19.59;32.70;98957.94;102509;1293;59931;-77
2023/12/23 03:34:16;;;;;;;3.30;1.90;;;;;;;19.60;32.62;98959.67;102320;1293;62300;-77
2023/12/23 03:36:41;;;;;;;2.60;1.70;;;;;;;19.60;32.69;98957.00;102436;1293;62175;-77
2023/12/23 03:39:07;;;;;;;3.10;1.60;;;;;;;19.60;32.64;98950.58;102314;1293;62350;-77
2023/12/23 03:41:33;;;;;;;2.80;1.90;;;;;;;19.60;32.55;98927.92;102446;1294;62108;-76
2023/12/23 03:43:59;;;;;;;4.10;1.80;;;;;;;19.59;32.78;98918.69;102405;1293;62117;-77
2023/12/23 03:46:27;;;;;;;3.50;2.10;;;;;;;19.59;32.70;98911.56;102498;1294;62237;-77
2023/12/23 03:48:52;;;;;;;2.90;1.90;;;;;;;19.59;32.65;98908.54;102194;1294;74049;-77
2023/12/23 03:51:18;;;;;;;3.20;1.60;;;;;;;19.59;32.74;98920.85;102302;1293;60761;-76
2023/12/23 03:53:44;;;;;;;3.40;1.80;;;;;;;19.59;32.73;98913.89;102387;1294;59986;-77
2023/12/23 03:56:09;;;;;;;4.80;1.80;;;;;;;19.59;32.72;98894.46;102330;1293;62165;-77
2023/12/23 03:58:35;;;;;;;2.50;1.70;;;;;;;19.59;32.76;98892.85;102276;1293;60196;-77
2023/12/23 04:01:01;;;;;;;2.60;1.60;;;;;;;19.58;32.60;98897.73;102563;1293;62218;-77
2023/12/23 04:03:26;;;;;;;3.20;1.90;;;;;;;19.59;32.76;98902.14;102288;1293;61188;-77
2023/12/23 04:05:52;;;;;;;2.60;1.70;;;;;;;19.59;32.62;98902.88;102306;1293;62089;-77
2023/12/23 04:08:18;;;;;;;2.50;1.50;;;;;;;19.58;32.53;98898.09;102458;1293;62089;-76
2023/12/23 04:10:44;;;;;;;2.70;1.70;;;;;;;19.58;32.48;98879.92;102470;1292;62213;-76
2023/12/23 04:13:09;;;;;;;2.90;1.70;;;;;;;19.58;32.57;98870.42;102188;1293;62257;-76
2023/12/23 04:15:35;;;;;;;2.40;1.60;;;;;;;19.58;32.56;98872.23;102330;1294;62175;-76
2023/12/23 04:18:01;;;;;;;3.20;1.70;;;;;;;19.58;32.62;98873.33;102235;1293;62923;-76
2023/12/23 04:20:26;;;;;;;2.90;1.80;;;;;;;19.57;32.61;98873.03;102476;1293;62217;-76
2023/12/23 04:22:52;;;;;;;2.40;1.70;;;;;;;19.58;32.71;98876.71;102314;1293;60740;-76
2023/12/23 04:25:18;;;;;;;3.20;1.80;;;;;;;19.58;32.71;98877.30;102537;1293;62202;-76
2023/12/23 04:27:43;;;;;;;3.20;1.80;;;;;;;19.58;32.62;98889.05;102320;1300;62850;-76
2023/12/23 04:30:10;;;;;;;3.10;1.60;;;;;;;19.57;32.77;98895.92;102400;1293;62270;-76
2023/12/23 04:32:35;;;;;;;2.10;1.40;;;;;;;19.57;32.65;98897.30;102448;1293;72415;-76
2023/12/23 04:35:01;;;;;;;2.90;1.60;;;;;;;19.57;32.51;98889.98;102657;1294;62192;-75
2023/12/23 04:37:27;;;;;;;2.80;1.80;;;;;;;19.57;32.53;98879.70;102557;1293;59904;-76
2023/12/23 04:39:53;;;;;;;2.90;1.60;;;;;;;19.56;32.67;98874.75;102344;1293;62171;-76
2023/12/23 04:42:19;;;;;;;2.40;1.60;;;;;;;19.56;32.57;98880.61;102534;1293;62136;-76
2023/12/23 04:44:44;;;;;;;2.90;1.70;;;;;;;19.56;32.57;98888.12;102607;1293;62112;-76
2023/12/23 04:47:10;;;;;;;2.80;1.70;;;;;;;19.56;32.59;98898.45;102438;1294;62088;-76
2023/12/23 04:49:36;;;;;;;3.10;1.60;;;;;;;19.56;32.62;98906.83;102499;1293;60208;-77
2023/12/23 04:52:01;;;;;;;2.70;1.70;;;;;;;19.56;32.53;98916.52;102462;1293;62231;-76
2023/12/23 04:54:27;;;;;;;3.10;1.70;;;;;;;19.56;32.74;98923.31;102570;1293;62183;-76
2023/12/23 04:56:53;;;;;;;3.10;1.70;;;;;;;19.56;32.72;98933.31;102536;1293;62063;-76
2023/12/23 04:59:19;;;;;;;2.20;1.50;;;;;;;19.55;32.63;98930.69;102336;1293;62273;-75
2023/12/23 05:01:44;;;;;;;2.80;1.50;;;;;;;19.55;32.74;98927.65;102323;1294;62698;-75
2023/12/23 05:04:10;;;;;;;3.10;1.80;;;;;;;19.55;32.71;98929.27;102398;1294;62200;-76
2023/12/23 05:06:36;;;;;;;3.20;1.70;;;;;;;19.55;32.67;98923.21;102475;1293;60846;-77
2023/12/23 05:09:02;;;;;;;4.70;1.50;;;;;;;19.54;32.64;98908.80;102325;1293;60925;-77
2023/12/23 05:11:28;;;;;;;2.80;1.60;;;;;;;19.55;32.59;98909.11;102455;1293;62184;-77
2023/12/23 05:13:54;;;;;;;3.30;1.80;;;;;;;19.55;32.64;98913.42;102516;1293;62077;-76
2023/12/23 05:16:19;;;;;;;2.90;1.80;;;;;;;19.55;32.52;98912.76;102420;1293;62151;-77
2023/12/23 05:18:45;;;;;;;2.50;1.60;;;;;;;19.54;32.81;98908.11;102324;1293;62282;-77
2023/12/23 05:21:11;;;;;;;5.40;1.50;;;;;;;19.54;32.67;98910.25;102273;1293;75043;-76
2023/12/23 05:23:36;;;;;;;2.70;1.70;;;;;;;19.54;32.58;98915.30;102493;1293;60330;-77
2023/12/23 05:26:02;;;;;;;3.50;1.50;;;;;;;19.54;32.61;98909.58;102460;1293;62126;-77
2023/12/23 05:28:27;;;;;;;2.80;1.50;;;;;;;19.54;32.57;98901.75;102457;1293;62186;-77
2023/12/23 05:30:53;;;;;;;3.10;1.80;;;;;;;19.53;32.70;98902.69;102335;1293;62181;-77
2023/12/23 05:33:19;;;;;;;3.40;1.80;;;;;;;19.53;32.58;98907.49;102335;1293;60163;-76
2023/12/23 05:35:45;;;;;;;2.40;1.60;;;;;;;19.53;32.49;98914.09;102373;1293;62101;-77
2023/12/23 05:38:11;;;;;;;2.60;1.60;;;;;;;19.53;32.59;98913.98;102293;1293;62170;-77
2023/12/23 05:40:37;;;;;;;2.80;1.60;;;;;;;19.53;32.62;98914.11;102348;1294;62232;-77
2023/12/23 05:43:03;;;;;;;2.10;1.40;;;;;;;19.53;32.60;98922.52;103041;1293;63117;-77
2023/12/23 05:45:29;;;;;;;3.70;1.70;;;;;;;19.53;32.57;98925.73;102419;1293;62199;-77
2023/12/23 05:47:55;;;;;;;3.10;1.90;;;;;;;19.53;32.54;98920.92;102253;1294;62295;-77
2023/12/23 05:50:20;;;;;;;3.20;1.70;;;;;;;19.53;32.62;98904.86;102430;1293;62182;-77
2023/12/23 05:52:46;;;;;;;2.50;1.40;;;;;;;19.53;32.61;98894.86;102606;1294;72363;-76
2023/12/23 05:55:12;;;;;;;1.90;1.30;;;;;;;19.53;32.72;98886.69;102382;1293;62105;-77
2023/12/23 05:57:37;;;;;;;2.00;1.50;;;;;;;19.53;32.56;98885.61;102327;1293;62248;-77
2023/12/23 06:00:05;;;;;;;2.30;1.50;;;;;;;19.52;32.56;98884.25;102314;1293;62323;-77
2023/12/23 06:02:31;;;;;;;2.30;1.50;;;;;;;19.52;32.74;98881.20;102240;1294;62069;-77
2023/12/23 06:04:58;;;;;;;3.10;1.60;;;;;;;19.52;32.68;98870.00;102383;1293;62209;-77
2023/12/23 06:07:23;;;;;;;2.60;1.50;;;;;;;19.52;32.61;98870.70;102367;1293;60348;-77
2023/12/23 06:09:49;;;;;;;2.70;1.50;;;;;;;19.52;32.64;98872.70;102428;1293;62106;-77
2023/12/23 06:12:15;;;;;;;3.00;1.70;;;;;;;19.52;32.56;98864.45;102302;1293;62177;-77
2023/12/23 06:14:41;;;;;;;2.50;1.60;;;;;;;19.52;32.63;98870.36;102484;1293;62177;-77
2023/12/23 06:17:07;;;;;;;3.10;1.60;;;;;;;19.52;32.70;98880.00;102490;1294;74142;-77
2023/12/23 06:19:34;;;;;;;3.60;1.70;;;;;;;19.52;32.68;98883.39;102402;1293;62186;-77
2023/12/23 06:22:00;;;;;;;2.70;1.60;;;;;;;19.52;32.73;98883.75;102357;1293;62238;-77
2023/12/23 06:24:25;;;;;;;2.50;1.50;;;;;;;19.51;32.57;98890.95;102320;1294;60217;-77
2023/12/23 06:26:51;;;;;;;3.10;1.70;;;;;;;19.51;32.66;98883.60;102338;1293;62022;-76
2023/12/23 06:29:16;;;;;;;3.20;1.40;;;;;;;19.51;32.75;98868.31;102510;1293;62254;-77
2023/12/23 06:31:42;;;;;;;2.70;1.50;;;;;;;19.51;32.62;98874.93;102345;1294;60962;-77
2023/12/23 06:34:08;;;;;;;2.60;1.50;;;;;;;19.50;32.74;98867.45;102526;1293;62206;-77
2023/12/23 06:36:33;;;;;;;3.10;1.30;;;;;;;19.50;32.63;98872.28;102367;1293;62172;-77
2023/12/23 06:38:59;;;;;;;2.40;1.50;;;;;;;19.50;32.76;98878.50;102307;1293;62197;-77
2023/12/23 06:41:25;;;;;;;2.20;1.70;;;;;;;19.50;32.69;98879.04;102467;1293;62164;-77
2023/12/23 06:43:51;;;;;;;2.90;1.60;;;;;;;19.51;32.67;98887.40;102357;1293;62244;-77
2023/12/23 06:46:16;;;;;;;3.30;1.70;;;;;;;19.50;32.74;98901.55;102421;1293;59950;-76
2023/12/23 06:48:42;;;;;;;2.90;1.70;;;;;;;19.51;32.73;98917.05;102388;1293;72361;-76
2023/12/23 06:51:08;;;;;;;3.20;1.70;;;;;;;19.51;32.72;98927.38;102245;1296;62219;-77
2023/12/23 06:53:34;;;;;;;2.60;1.40;;;;;;;19.50;32.73;98928.48;102334;1293;60125;-77
2023/12/23 06:55:59;;;;;;;3.90;1.70;;;;;;;19.50;32.67;98915.30;102289;1293;62238;-77
2023/12/23 06:58:26;;;;;;;2.90;1.60;;;;;;;19.50;32.69;98917.27;102239;1294;62211;-77
2023/12/23 07:00:52;;;;;;;2.80;1.60;;;;;;;19.50;32.81;98915.48;102440;1293;61963;-76
2023/12/23 07:03:18;;;;;;;3.30;1.40;;;;;;;19.50;32.72;98919.21;102285;1293;62749;-77
2023/12/23 07:05:43;;;;;;;2.60;1.70;;;;;;;19.49;32.62;98923.79;102498;1296;62267;-76
2023/12/23 07:08:09;;;;;;;3.10;1.50;;;;;;;19.49;32.79;98941.08;102283;1296;62165;-77
2023/12/23 07:10:35;;;;;;;2.60;1.50;;;;;;;19.50;32.81;98944.60;102303;1296;60926;-77
2023/12/23 07:13:00;;;;;;;3.10;1.70;;;;;;;19.50;32.68;98934.97;102500;1296;62103;-77
2023/12/23 07:15:26;;;;;;;2.90;1.70;;;;;;;19.49;32.83;98935.39;102352;1296;62234;-77
2023/12/23 07:17:51;;;;;;;2.70;1.80;;;;;;;19.49;32.74;98961.25;102400;1296;62087;-77
2023/12/23 07:20:17;;;;;;;2.60;1.60;;;;;;;19.49;32.69;98959.81;102420;1297;62184;-77
2023/12/23 07:22:43;;;;;;;2.50;1.50;;;;;;;19.49;32.80;98949.98;102305;1295;62209;-77
2023/12/23 07:25:09;;;;;;;2.30;1.50;;;;;;;19.49;32.84;98939.16;102358;1295;62695;-77
2023/12/23 07:27:34;;;;;;;2.00;1.20;;;;;;;19.49;32.67;98927.92;102390;1295;62072;-77
2023/12/23 07:30:00;;;;;;;3.20;1.80;;;;;;;19.48;32.78;98923.34;102442;1296;62298;-77
2023/12/23 07:32:26;;;;;;;3.00;1.60;;;;;;;19.48;32.73;98921.56;102383;1296;60332;-77
2023/12/23 07:34:51;;;;;;;2.40;1.60;;;;;;;19.48;32.79;98926.04;102330;1296;62216;-76
2023/12/23 07:37:17;;;;;;;2.60;1.40;;;;;;;19.48;32.83;98937.98;102045;1295;612338;-77
2023/12/23 07:39:42;;;;;;;2.90;1.50;;;;;;;19.48;32.74;98934.81;102305;1295;62222;-77
2023/12/23 07:42:08;;;;;;;2.90;1.50;;;;;;;19.47;32.77;98925.19;102361;1296;62270;-77
2023/12/23 07:44:36;;;;;;;2.10;1.40;;;;;;;19.47;32.86;98890.27;102215;1299;62200;-77
2023/12/23 07:47:04;;;;;;;4.50;1.50;;;;;;;19.47;32.69;98877.45;102303;1296;60918;-77
2023/12/23 07:49:33;;;;;;;2.90;1.60;;;;;;;19.46;32.70;98870.19;102440;1294;62094;-77
2023/12/23 07:51:59;;;;;;;3.20;1.70;;;;;;;19.46;32.70;98848.95;102359;1295;62078;-77
2023/12/23 07:54:25;;;;;;;3.60;1.50;;;;;;;19.46;32.72;98829.38;102506;1297;62202;-76
2023/12/23 07:56:51;;;;;;;2.40;1.50;;;;;;;19.46;32.85;98841.48;102367;1295;60113;-77
2023/12/23 07:59:17;;;;;;;2.20;1.40;;;;;;;19.46;32.65;98872.02;102225;1296;62235;-77
2023/12/23 08:01:46;;;;;;;2.50;1.50;;;;;;;19.46;32.72;98892.73;102365;1295;62161;-77
2023/12/23 08:04:12;;;;;;;2.70;1.60;;;;;;;19.46;32.71;98913.93;102417;1294;72267;-77
2023/12/23 08:06:38;;;;;;;3.90;1.50;;;;;;;19.45;32.67;98913.25;102383;1296;62104;-77
2023/12/23 08:09:04;;;;;;;2.50;1.40;;;;;;;19.45;32.76;98905.06;102419;1296;62221;-77
2023/12/23 08:11:30;;;;;;;3.60;1.60;;;;;;;19.46;32.79;98860.60;102702;1296;59899;-76
2023/12/23 08:13:56;;;;;;;2.30;1.50;;;;;;;19.45;32.82;98814.25;102342;1296;62256;-77
2023/12/23 08:16:22;;;;;;;2.80;1.50;;;;;;;19.45;32.78;98840.52;102216;1295;62251;-77
2023/12/23 08:18:47;;;;;;;2.40;1.60;;;;;;;19.45;32.71;98891.71;102346;1296;62111;-77
2023/12/23 08:21:14;;;;;;;2.20;1.30;;;;;;;19.45;32.79;98938.13;102270;1295;62232;-77
2023/12/23 08:23:40;;;;;;;3.30;1.50;;;;;;;19.45;32.88;98946.14;102338;1297;62043;-77
2023/12/23 08:26:08;;;;;;;2.70;1.60;;;;;;;19.45;32.80;98948.80;102357;1296;62321;-77
2023/12/23 08:28:33;;;;;;;2.20;1.30;;;;;;;19.45;32.87;98935.59;102426;1296;75886;-77
2023/12/23 08:30:59;;;;;;;2.50;1.60;;;;;;;19.45;32.95;98919.94;102237;1296;62091;-77
2023/12/23 08:33:24;;;;;;;2.80;1.60;;;;;;;19.44;32.86;98907.48;102318;1296;62882;-77
2023/12/23 08:35:50;;;;;;;2.80;1.50;;;;;;;19.44;32.72;98915.70;102491;1296;59942;-77
2023/12/23 08:38:16;;;;;;;2.40;1.60;;;;;;;19.44;32.79;98929.98;102208;1294;62030;-77
2023/12/23 08:40:43;;;;;;;2.80;1.40;;;;;;;19.44;32.78;98932.47;102431;1295;62343;-77
2023/12/23 08:43:10;;;;;;;2.60;1.50;;;;;;;19.44;32.82;98933.73;102467;1295;62173;-77
2023/12/23 08:45:35;;;;;;;2.70;1.60;;;;;;;19.43;32.84;98933.06;102269;1296;62056;-77
2023/12/23 08:48:01;;;;;;;2.60;1.60;;;;;;;19.43;32.78;98939.66;102381;1295;62212;-77
2023/12/23 08:50:27;;;;;;;2.20;1.50;;;;;;;19.43;32.78;98933.79;102429;1298;60877;-77
2023/12/23 08:52:52;;;;;;;2.90;1.50;;;;;;;19.43;32.76;98933.99;102327;1295;62277;-77
2023/12/23 08:55:18;;;;;;;3.00;1.60;;;;;;;19.43;32.74;98938.07;102345;1296;62096;-77
2023/12/23 08:57:43;;;;;;;2.40;1.60;;;;;;;19.42;32.82;98944.92;102453;1296;62261;-77
2023/12/23 09:00:10;;;;;;;3.10;1.50;;;;;;;19.42;32.79;98946.33;102326;1296;73452;-77
2023/12/23 09:02:35;;;;;;;3.70;1.60;;;;;;;19.42;32.81;98951.18;102384;1296;62172;-76
2023/12/23 09:05:01;;;;;;;3.50;2.20;;;;;;;19.42;32.90;98952.44;102346;1295;62178;-77
2023/12/23 09:07:27;;;;;;;3.60;1.40;;;;;;;19.42;32.81;98949.07;102274;1296;62090;-77
2023/12/23 09:09:52;;;;;;;2.70;1.60;;;;;;;19.42;32.91;98956.36;102310;1299;62177;-76
2023/12/23 09:12:21;;;;;;;2.40;1.40;;;;;;;19.41;32.76;98963.91;102370;1294;62276;-77
2023/12/23 09:14:50;;;;;;;;;;;;;;;19.41;32.87;98955.01;102352;1295;75221;-76
2023/12/23 09:17:16;;;;;;;3.60;1.70;;;;;;;19.38;32.80;98946.39;102449;1295;60743;-77
2023/12/23 09:19:42;;;;;;;2.90;1.60;;;;;;;19.39;32.85;98942.04;102454;1296;62251;-77
2023/12/23 09:22:07;;;;;;;2.10;1.40;;;;;;;19.39;32.87;98947.54;102411;1296;60028;-77
2023/12/23 09:24:37;;;;;;;2.10;1.50;;;;;;;19.39;32.89;98951.80;102374;1296;60278;-76
2023/12/23 09:27:03;;;;;;;2.30;1.40;;;;;;;19.39;32.87;98942.39;102289;1295;62170;-77
2023/12/23 09:29:29;;;;;;;3.60;1.70;;;;;;;19.39;32.96;98947.38;102256;1295;62203;-77
2023/12/23 09:31:55;;;;;;;2.30;1.50;;;;;;;19.39;32.85;98964.50;102313;1295;62261;-76
2023/12/23 09:34:21;;;;;;;2.60;1.60;;;;;;;19.39;32.88;98974.67;102468;1296;62174;-77
2023/12/23 09:36:47;;;;;;;2.80;1.60;;;;;;;19.39;32.94;98978.56;102426;1293;62214;-78
2023/12/23 09:39:12;;;;;;;1.80;1.30;;;;;;;19.39;32.88;98985.02;102920;1292;59947;-77
2023/12/23 09:41:41;;;;;;;2.90;1.70;;;;;;;19.40;32.95;98991.75;102999;1292;60184;-77
2023/12/23 09:44:07;;;;;;;3.10;1.60;;;;;;;19.39;32.85;99017.46;102987;1292;62241;-78
2023/12/23 09:46:35;;;;;;;2.70;1.50;;;;;;;19.40;32.83;99023.48;102703;1296;62177;-77
2023/12/23 09:49:01;;;;;;;3.70;1.60;;;;;;;19.40;32.85;99009.58;102954;1292;60802;-77
2023/12/23 09:51:29;;;;;;;2.80;1.50;;;;;;;19.39;32.91;99007.80;102549;1292;62385;-77
2023/12/23 09:54:02;;;;;;;2.80;1.60;;;;;;;19.40;32.85;99003.15;102846;1292;74171;-77
2023/12/23 09:56:28;;;;;;;2.90;1.50;;;;;;;19.39;33.02;99005.15;103556;1293;62117;-77
2023/12/23 09:58:54;;;;;;;2.50;1.60;;;;;;;19.39;32.93;99011.94;103286;1294;61969;-77
2023/12/23 10:01:20;;;;;;;2.40;1.30;;;;;;;19.39;32.79;99002.28;103058;1296;62210;-77
2023/12/23 10:03:46;;;;;;;2.40;1.60;;;;;;;19.39;32.84;98996.40;102942;1294;60896;-77
2023/12/23 10:06:15;;;;;;;2.40;1.50;;;;;;;19.40;32.99;99008.70;103076;1293;62195;-77
2023/12/23 10:08:42;;;;;;;2.20;1.30;;;;;;;19.40;32.87;99015.97;102743;1293;62094;-77
2023/12/23 10:11:08;;;;;;;2.30;1.50;;;;;;;19.40;32.84;99013.33;102323;1292;62225;-77
2023/12/23 10:13:34;;;;;;;2.30;1.50;;;;;;;19.40;32.82;99003.15;102398;1292;60895;-76
2023/12/23 10:16:00;;;;;;;2.20;1.50;;;;;;;19.40;32.95;98998.14;102482;1292;62261;-77
2023/12/23 10:18:25;;;;;;;3.90;1.60;;;;;;;19.40;32.82;98984.60;102315;1292;62167;-77
2023/12/23 10:20:51;;;;;;;2.50;1.40;;;;;;;19.40;33.01;98970.34;102533;1292;60801;-76
2023/12/23 10:23:17;;;;;;;2.70;1.60;;;;;;;19.40;32.90;98966.06;102345;1294;62232;-77
2023/12/23 10:25:43;;;;;;;2.60;1.50;;;;;;;19.40;32.83;98969.94;102509;1294;75448;-77
2023/12/23 10:28:10;;;;;;;3.10;1.60;;;;;;;19.40;32.79;98961.92;102481;1294;62084;-77
2023/12/23 10:30:41;;;;;;;3.10;1.40;;;;;;;19.40;32.85;98960.49;102699;1292;62065;-77
2023/12/23 10:33:08;;;;;;;2.50;1.70;;;;;;;19.40;32.76;98964.73;102261;1292;72350;-77
2023/12/23 10:35:47;;;;;;;3.00;1.50;;;;;;;19.40;32.84;98969.94;102416;1292;62197;-77
2023/12/23 10:38:18;;;;;;;2.60;1.60;;;;;;;19.40;32.72;98965.86;102421;1292;62104;-77
2023/12/23 10:40:52;;;;;;;2.30;1.40;;;;;;;19.40;32.89;98967.08;102480;1292;62196;-76
2023/12/23 10:43:17;;;;;;;2.60;1.40;;;;;;;19.40;32.73;98958.50;102558;1294;72498;-77
2023/12/23 10:45:43;;;;;;;2.50;1.50;;;;;;;19.40;32.70;98956.93;102452;1292;62294;-76
2023/12/23 10:48:09;;;;;;;2.30;1.50;;;;;;;19.40;32.90;98953.36;102314;1294;62225;-77
2023/12/23 10:50:35;;;;;;;2.40;1.50;;;;;;;19.40;32.91;98955.70;102474;1292;60500;-77
2023/12/23 10:53:01;;;;;;;2.40;1.60;;;;;;;19.39;32.87;98956.08;102477;1293;62085;-77
2023/12/23 10:55:26;;;;;;;4.00;1.50;;;;;;;19.40;32.88;98962.08;102548;1294;62251;-77
2023/12/23 10:57:53;;;;;;;2.80;1.60;;;;;;;19.40;32.78;98966.77;102350;1293;62085;-77
2023/12/23 11:00:18;;;;;;;2.40;1.50;;;;;;;19.39;32.80;98981.77;102428;1293;60676;-77
2023/12/23 11:02:44;;;;;;;2.40;1.40;;;;;;;19.40;32.73;98993.71;102441;1292;62321;-77
2023/12/23 11:05:10;;;;;;;3.20;1.90;;;;;;;19.39;32.84;98997.29;102260;1294;62197;-77
2023/12/23 11:07:42;;;;;;;2.70;1.60;;;;;;;19.40;32.89;98999.60;102729;1292;62106;-77
2023/12/23 11:10:08;;;;;;;2.30;1.60;;;;;;;19.39;32.88;98998.02;102461;1292;62185;-77
2023/12/23 11:12:34;;;;;;;2.40;1.50;;;;;;;19.39;32.82;98992.85;102336;1294;62158;-77
2023/12/23 11:14:59;;;;;;;2.70;1.40;;;;;;;19.39;32.85;98982.69;102358;1294;61976;-77
2023/12/23 11:17:29;;;;;;;2.70;1.40;;;;;;;19.39;32.68;98978.02;102402;1296;62193;-77